Terminal Aerodrome Forecast
Issued by NWS

Home | Current Version | Previous Version | Text Only | Print | Product List | Glossary On
Versions: 1 2 3 4 5 6 7 8 9 10 11 12 13 14 15 16 17 18 19 20 21 22 23 24 25 26 27
925
FTUS41 KPBZ 131904 AAA
TAFFKL
TAF AMD
KFKL 131904Z 1319/1418 26010KT P6SM -SHSN OVC015
     FM131945 24007KT 4SM -SN OVC015
     FM132100 20006KT 1SM -SN OVC010
     FM140900 33007KT 4SM -SHSN OVC015
     FM141500 32007KT P6SM VCSH BKN025=

USA.gov is the U.S. government's official web portal to all federal, state and local government web resources and services.